sensor_id;sensor_type;location;lat;lon;timestamp;P1;durP1;ratioP1;P2;durP2;ratioP2
51499;SDS011;39101;53.478;6.158;2023-05-31T00:00:13;11.15;;;4.30;;
51499;SDS011;39101;53.478;6.158;2023-05-31T00:02:39;8.93;;;4.05;;
51499;SDS011;39101;53.478;6.158;2023-05-31T00:05:05;8.68;;;4.20;;
51499;SDS011;39101;53.478;6.158;2023-05-31T00:07:31;10.13;;;4.68;;
51499;SDS011;39101;53.478;6.158;2023-05-31T00:09:57;9.52;;;4.18;;
51499;SDS011;39101;53.478;6.158;2023-05-31T00:12:22;14.48;;;4.43;;
51499;SDS011;39101;53.478;6.158;2023-05-31T00:14:48;8.70;;;4.20;;
51499;SDS011;39101;53.478;6.158;2023-05-31T00:17:14;9.52;;;4.25;;
51499;SDS011;39101;53.478;6.158;2023-05-31T00:19:39;12.23;;;4.65;;
51499;SDS011;39101;53.478;6.158;2023-05-31T00:22:05;7.25;;;3.95;;
51499;SDS011;39101;53.478;6.158;2023-05-31T00:24:31;10.80;;;5.05;;
51499;SDS011;39101;53.478;6.158;2023-05-31T00:26:57;8.15;;;4.20;;
51499;SDS011;39101;53.478;6.158;2023-05-31T00:29:22;8.07;;;4.85;;
51499;SDS011;39101;53.478;6.158;2023-05-31T00:31:48;11.45;;;4.43;;
51499;SDS011;39101;53.478;6.158;2023-05-31T00:34:14;11.10;;;4.80;;
51499;SDS011;39101;53.478;6.158;2023-05-31T00:36:39;7.63;;;4.60;;
51499;SDS011;39101;53.478;6.158;2023-05-31T00:39:05;9.80;;;4.50;;
51499;SDS011;39101;53.478;6.158;2023-05-31T00:41:31;6.97;;;4.00;;
51499;SDS011;39101;53.478;6.158;2023-05-31T00:43:56;9.77;;;4.45;;
51499;SDS011;39101;53.478;6.158;2023-05-31T00:46:27;15.85;;;5.20;;
51499;SDS011;39101;53.478;6.158;2023-05-31T00:48:54;10.82;;;4.47;;
51499;SDS011;39101;53.478;6.158;2023-05-31T00:51:21;10.60;;;4.40;;
51499;SDS011;39101;53.478;6.158;2023-05-31T00:53:47;10.30;;;4.30;;
51499;SDS011;39101;53.478;6.158;2023-05-31T00:56:13;9.75;;;4.25;;
51499;SDS011;39101;53.478;6.158;2023-05-31T00:58:40;7.43;;;4.45;;
51499;SDS011;39101;53.478;6.158;2023-05-31T01:01:07;10.90;;;5.15;;
51499;SDS011;39101;53.478;6.158;2023-05-31T01:03:34;9.57;;;5.10;;
51499;SDS011;39101;53.478;6.158;2023-05-31T01:05:59;9.07;;;4.70;;
51499;SDS011;39101;53.478;6.158;2023-05-31T01:08:25;10.50;;;4.15;;
51499;SDS011;39101;53.478;6.158;2023-05-31T01:10:52;8.98;;;4.60;;
51499;SDS011;39101;53.478;6.158;2023-05-31T01:16:41;9.25;;;4.78;;
51499;SDS011;39101;53.478;6.158;2023-05-31T01:20:14;8.20;;;5.13;;
51499;SDS011;39101;53.478;6.158;2023-05-31T01:28:11;12.52;;;5.47;;
51499;SDS011;39101;53.478;6.158;2023-05-31T01:30:39;10.68;;;5.32;;
51499;SDS011;39101;53.478;6.158;2023-05-31T01:33:08;9.23;;;5.10;;
51499;SDS011;39101;53.478;6.158;2023-05-31T01:35:37;13.18;;;5.35;;
51499;SDS011;39101;53.478;6.158;2023-05-31T01:38:03;12.45;;;5.50;;
51499;SDS011;39101;53.478;6.158;2023-05-31T01:40:29;10.18;;;5.50;;
51499;SDS011;39101;53.478;6.158;2023-05-31T01:42:55;13.85;;;6.03;;
51499;SDS011;39101;53.478;6.158;2023-05-31T01:45:22;10.32;;;4.50;;
51499;SDS011;39101;53.478;6.158;2023-05-31T01:47:48;12.05;;;5.38;;
51499;SDS011;39101;53.478;6.158;2023-05-31T01:50:20;14.27;;;5.75;;
51499;SDS011;39101;53.478;6.158;2023-05-31T01:52:45;10.63;;;5.00;;
51499;SDS011;39101;53.478;6.158;2023-05-31T01:55:11;12.13;;;5.45;;
51499;SDS011;39101;53.478;6.158;2023-05-31T01:57:37;9.73;;;5.30;;
51499;SDS011;39101;53.478;6.158;2023-05-31T02:00:05;9.05;;;4.80;;
51499;SDS011;39101;53.478;6.158;2023-05-31T02:02:36;15.45;;;5.07;;
51499;SDS011;39101;53.478;6.158;2023-05-31T02:05:05;13.38;;;6.20;;
51499;SDS011;39101;53.478;6.158;2023-05-31T02:07:33;10.55;;;6.10;;
51499;SDS011;39101;53.478;6.158;2023-05-31T02:10:00;12.75;;;6.20;;
51499;SDS011;39101;53.478;6.158;2023-05-31T02:12:26;12.77;;;6.53;;
51499;SDS011;39101;53.478;6.158;2023-05-31T02:14:52;11.82;;;6.05;;
51499;SDS011;39101;53.478;6.158;2023-05-31T02:17:17;12.88;;;5.43;;
51499;SDS011;39101;53.478;6.158;2023-05-31T02:19:45;16.38;;;6.05;;
51499;SDS011;39101;53.478;6.158;2023-05-31T02:22:12;13.05;;;6.03;;
51499;SDS011;39101;53.478;6.158;2023-05-31T02:24:37;17.92;;;6.13;;
51499;SDS011;39101;53.478;6.158;2023-05-31T02:27:03;16.95;;;6.15;;
51499;SDS011;39101;53.478;6.158;2023-05-31T02:29:30;9.70;;;6.35;;
51499;SDS011;39101;53.478;6.158;2023-05-31T02:31:56;11.20;;;6.25;;
51499;SDS011;39101;53.478;6.158;2023-05-31T02:34:21;11.77;;;6.32;;
51499;SDS011;39101;53.478;6.158;2023-05-31T02:36:47;14.88;;;6.13;;
51499;SDS011;39101;53.478;6.158;2023-05-31T02:39:13;15.52;;;5.82;;
51499;SDS011;39101;53.478;6.158;2023-05-31T02:41:38;13.48;;;6.22;;
51499;SDS011;39101;53.478;6.158;2023-05-31T02:44:04;16.80;;;6.10;;
51499;SDS011;39101;53.478;6.158;2023-05-31T02:46:30;11.73;;;5.82;;
51499;SDS011;39101;53.478;6.158;2023-05-31T02:48:55;15.25;;;6.63;;
51499;SDS011;39101;53.478;6.158;2023-05-31T02:51:21;14.48;;;5.53;;
51499;SDS011;39101;53.478;6.158;2023-05-31T02:53:47;18.70;;;6.93;;
51499;SDS011;39101;53.478;6.158;2023-05-31T02:56:12;11.00;;;5.50;;
51499;SDS011;39101;53.478;6.158;2023-05-31T02:58:38;15.55;;;5.97;;
51499;SDS011;39101;53.478;6.158;2023-05-31T03:01:03;13.68;;;5.60;;
51499;SDS011;39101;53.478;6.158;2023-05-31T03:03:29;11.45;;;5.45;;
51499;SDS011;39101;53.478;6.158;2023-05-31T03:05:55;15.07;;;6.40;;
51499;SDS011;39101;53.478;6.158;2023-05-31T03:08:20;12.80;;;6.47;;
51499;SDS011;39101;53.478;6.158;2023-05-31T03:10:46;13.10;;;5.90;;
51499;SDS011;39101;53.478;6.158;2023-05-31T03:13:12;13.70;;;6.40;;
51499;SDS011;39101;53.478;6.158;2023-05-31T03:15:37;12.32;;;4.88;;
51499;SDS011;39101;53.478;6.158;2023-05-31T03:18:03;17.70;;;6.55;;
51499;SDS011;39101;53.478;6.158;2023-05-31T03:20:28;13.65;;;6.00;;
51499;SDS011;39101;53.478;6.158;2023-05-31T03:22:55;18.23;;;6.93;;
51499;SDS011;39101;53.478;6.158;2023-05-31T03:25:21;14.05;;;6.38;;
51499;SDS011;39101;53.478;6.158;2023-05-31T03:27:47;20.67;;;7.57;;
51499;SDS011;39101;53.478;6.158;2023-05-31T03:30:12;18.98;;;7.10;;
51499;SDS011;39101;53.478;6.158;2023-05-31T03:32:38;19.00;;;6.85;;
51499;SDS011;39101;53.478;6.158;2023-05-31T03:35:04;15.48;;;5.88;;
51499;SDS011;39101;53.478;6.158;2023-05-31T03:37:30;16.13;;;5.78;;
51499;SDS011;39101;53.478;6.158;2023-05-31T03:39:56;15.65;;;6.57;;
51499;SDS011;39101;53.478;6.158;2023-05-31T03:42:21;14.30;;;6.03;;
51499;SDS011;39101;53.478;6.158;2023-05-31T03:44:47;17.42;;;6.50;;
51499;SDS011;39101;53.478;6.158;2023-05-31T03:47:12;17.38;;;6.05;;
51499;SDS011;39101;53.478;6.158;2023-05-31T03:49:38;16.90;;;6.38;;
51499;SDS011;39101;53.478;6.158;2023-05-31T03:52:04;15.38;;;5.70;;
51499;SDS011;39101;53.478;6.158;2023-05-31T03:54:30;14.60;;;5.43;;
51499;SDS011;39101;53.478;6.158;2023-05-31T03:56:56;17.38;;;6.35;;
51499;SDS011;39101;53.478;6.158;2023-05-31T03:59:21;15.02;;;6.55;;
51499;SDS011;39101;53.478;6.158;2023-05-31T04:01:47;12.13;;;5.32;;
51499;SDS011;39101;53.478;6.158;2023-05-31T04:04:12;18.17;;;7.13;;
51499;SDS011;39101;53.478;6.158;2023-05-31T04:06:38;15.23;;;6.38;;
51499;SDS011;39101;53.478;6.158;2023-05-31T04:09:04;19.73;;;6.88;;
51499;SDS011;39101;53.478;6.158;2023-05-31T04:11:29;20.77;;;6.65;;
51499;SDS011;39101;53.478;6.158;2023-05-31T04:13:55;20.92;;;7.68;;
51499;SDS011;39101;53.478;6.158;2023-05-31T04:16:21;14.55;;;5.82;;
51499;SDS011;39101;53.478;6.158;2023-05-31T04:18:46;17.65;;;6.97;;
51499;SDS011;39101;53.478;6.158;2023-05-31T04:21:12;15.90;;;6.32;;
51499;SDS011;39101;53.478;6.158;2023-05-31T04:23:38;17.77;;;6.60;;
51499;SDS011;39101;53.478;6.158;2023-05-31T04:26:03;18.08;;;6.45;;
51499;SDS011;39101;53.478;6.158;2023-05-31T04:28:29;21.65;;;5.57;;
51499;SDS011;39101;53.478;6.158;2023-05-31T04:30:56;17.65;;;6.07;;
51499;SDS011;39101;53.478;6.158;2023-05-31T04:33:22;19.17;;;6.18;;
51499;SDS011;39101;53.478;6.158;2023-05-31T04:35:48;14.68;;;5.03;;
51499;SDS011;39101;53.478;6.158;2023-05-31T04:38:15;16.90;;;5.53;;
51499;SDS011;39101;53.478;6.158;2023-05-31T04:40:43;17.60;;;6.03;;
51499;SDS011;39101;53.478;6.158;2023-05-31T04:43:09;18.63;;;6.78;;
51499;SDS011;39101;53.478;6.158;2023-05-31T04:45:34;12.82;;;5.32;;
51499;SDS011;39101;53.478;6.158;2023-05-31T04:48:00;13.65;;;5.57;;
51499;SDS011;39101;53.478;6.158;2023-05-31T04:50:26;18.55;;;5.85;;
51499;SDS011;39101;53.478;6.158;2023-05-31T04:52:53;17.77;;;4.97;;
51499;SDS011;39101;53.478;6.158;2023-05-31T04:55:19;12.88;;;4.75;;
51499;SDS011;39101;53.478;6.158;2023-05-31T04:57:44;17.45;;;4.45;;
51499;SDS011;39101;53.478;6.158;2023-05-31T05:00:10;19.65;;;4.57;;
51499;SDS011;39101;53.478;6.158;2023-05-31T05:02:41;15.95;;;4.43;;
51499;SDS011;39101;53.478;6.158;2023-05-31T05:05:08;22.75;;;4.75;;
51499;SDS011;39101;53.478;6.158;2023-05-31T05:07:33;13.70;;;4.47;;
51499;SDS011;39101;53.478;6.158;2023-05-31T05:10:00;17.30;;;5.47;;
51499;SDS011;39101;53.478;6.158;2023-05-31T05:12:25;16.00;;;4.32;;
51499;SDS011;39101;53.478;6.158;2023-05-31T05:14:51;17.75;;;3.90;;
51499;SDS011;39101;53.478;6.158;2023-05-31T05:17:16;12.43;;;3.55;;
51499;SDS011;39101;53.478;6.158;2023-05-31T05:19:42;10.85;;;3.63;;
51499;SDS011;39101;53.478;6.158;2023-05-31T05:22:09;12.65;;;3.50;;
51499;SDS011;39101;53.478;6.158;2023-05-31T05:24:35;14.77;;;4.55;;
51499;SDS011;39101;53.478;6.158;2023-05-31T05:27:01;13.30;;;3.60;;
51499;SDS011;39101;53.478;6.158;2023-05-31T05:29:27;10.93;;;3.03;;
51499;SDS011;39101;53.478;6.158;2023-05-31T05:31:53;10.73;;;3.15;;
51499;SDS011;39101;53.478;6.158;2023-05-31T05:34:18;15.43;;;3.88;;
51499;SDS011;39101;53.478;6.158;2023-05-31T05:36:45;13.32;;;3.42;;
51499;SDS011;39101;53.478;6.158;2023-05-31T05:39:12;11.13;;;2.97;;
51499;SDS011;39101;53.478;6.158;2023-05-31T05:41:37;14.27;;;4.78;;
51499;SDS011;39101;53.478;6.158;2023-05-31T05:44:03;12.90;;;2.92;;
51499;SDS011;39101;53.478;6.158;2023-05-31T05:46:28;9.35;;;2.75;;
51499;SDS011;39101;53.478;6.158;2023-05-31T05:48:54;9.90;;;2.88;;
51499;SDS011;39101;53.478;6.158;2023-05-31T05:51:20;15.38;;;2.40;;
51499;SDS011;39101;53.478;6.158;2023-05-31T05:53:45;9.35;;;2.33;;
51499;SDS011;39101;53.478;6.158;2023-05-31T05:56:11;8.30;;;2.25;;
51499;SDS011;39101;53.478;6.158;2023-05-31T05:58:38;9.32;;;2.10;;
51499;SDS011;39101;53.478;6.158;2023-05-31T06:01:04;9.38;;;2.85;;
51499;SDS011;39101;53.478;6.158;2023-05-31T06:03:29;5.65;;;1.60;;
51499;SDS011;39101;53.478;6.158;2023-05-31T06:05:55;6.88;;;1.80;;
51499;SDS011;39101;53.478;6.158;2023-05-31T06:08:21;6.13;;;1.70;;
51499;SDS011;39101;53.478;6.158;2023-05-31T06:10:47;5.68;;;1.80;;
51499;SDS011;39101;53.478;6.158;2023-05-31T06:13:12;8.02;;;1.65;;
51499;SDS011;39101;53.478;6.158;2023-05-31T06:15:38;6.78;;;1.20;;
51499;SDS011;39101;53.478;6.158;2023-05-31T06:18:04;5.53;;;2.13;;
51499;SDS011;39101;53.478;6.158;2023-05-31T06:20:29;4.57;;;0.95;;
51499;SDS011;39101;53.478;6.158;2023-05-31T06:22:55;8.68;;;1.30;;
51499;SDS011;39101;53.478;6.158;2023-05-31T06:25:21;5.88;;;1.20;;
51499;SDS011;39101;53.478;6.158;2023-05-31T06:27:47;4.72;;;0.80;;
51499;SDS011;39101;53.478;6.158;2023-05-31T06:30:13;8.45;;;1.00;;
51499;SDS011;39101;53.478;6.158;2023-05-31T06:32:39;4.82;;;1.00;;
51499;SDS011;39101;53.478;6.158;2023-05-31T06:35:05;5.47;;;1.20;;
51499;SDS011;39101;53.478;6.158;2023-05-31T06:37:31;6.68;;;1.42;;
51499;SDS011;39101;53.478;6.158;2023-05-31T06:39:57;6.90;;;1.40;;
51499;SDS011;39101;53.478;6.158;2023-05-31T06:42:22;5.07;;;1.23;;
51499;SDS011;39101;53.478;6.158;2023-05-31T06:44:48;11.88;;;1.98;;
51499;SDS011;39101;53.478;6.158;2023-05-31T06:47:14;8.38;;;2.10;;
51499;SDS011;39101;53.478;6.158;2023-05-31T06:49:39;6.28;;;1.50;;
51499;SDS011;39101;53.478;6.158;2023-05-31T06:52:05;13.77;;;3.22;;
51499;SDS011;39101;53.478;6.158;2023-05-31T06:54:34;10.45;;;2.75;;
51499;SDS011;39101;53.478;6.158;2023-05-31T06:57:01;7.55;;;1.88;;
51499;SDS011;39101;53.478;6.158;2023-05-31T06:59:30;16.23;;;3.85;;
51499;SDS011;39101;53.478;6.158;2023-05-31T07:01:56;11.73;;;3.03;;
51499;SDS011;39101;53.478;6.158;2023-05-31T07:04:22;15.60;;;3.10;;
51499;SDS011;39101;53.478;6.158;2023-05-31T07:06:48;13.60;;;2.85;;
51499;SDS011;39101;53.478;6.158;2023-05-31T07:09:14;13.90;;;3.25;;
51499;SDS011;39101;53.478;6.158;2023-05-31T07:11:40;10.57;;;3.10;;
51499;SDS011;39101;53.478;6.158;2023-05-31T07:14:06;10.43;;;2.80;;
51499;SDS011;39101;53.478;6.158;2023-05-31T07:16:31;11.00;;;2.50;;
51499;SDS011;39101;53.478;6.158;2023-05-31T07:18:57;13.00;;;4.25;;
51499;SDS011;39101;53.478;6.158;2023-05-31T07:21:23;15.13;;;3.47;;
51499;SDS011;39101;53.478;6.158;2023-05-31T07:23:49;9.85;;;2.75;;
51499;SDS011;39101;53.478;6.158;2023-05-31T07:26:15;10.13;;;2.90;;
51499;SDS011;39101;53.478;6.158;2023-05-31T07:28:44;13.63;;;4.15;;
51499;SDS011;39101;53.478;6.158;2023-05-31T07:31:12;12.43;;;3.10;;
51499;SDS011;39101;53.478;6.158;2023-05-31T07:33:40;10.77;;;3.90;;
51499;SDS011;39101;53.478;6.158;2023-05-31T07:36:06;8.82;;;3.03;;
51499;SDS011;39101;53.478;6.158;2023-05-31T07:38:32;11.52;;;3.30;;
51499;SDS011;39101;53.478;6.158;2023-05-31T07:40:58;11.15;;;3.15;;
51499;SDS011;39101;53.478;6.158;2023-05-31T07:43:24;15.45;;;3.88;;
51499;SDS011;39101;53.478;6.158;2023-05-31T07:45:50;10.77;;;3.85;;
51499;SDS011;39101;53.478;6.158;2023-05-31T07:48:16;15.55;;;4.10;;
51499;SDS011;39101;53.478;6.158;2023-05-31T07:50:43;11.80;;;3.38;;
51499;SDS011;39101;53.478;6.158;2023-05-31T07:53:09;16.55;;;3.33;;
51499;SDS011;39101;53.478;6.158;2023-05-31T07:55:35;10.73;;;3.05;;
51499;SDS011;39101;53.478;6.158;2023-05-31T07:58:01;10.02;;;3.10;;
51499;SDS011;39101;53.478;6.158;2023-05-31T08:00:27;16.10;;;3.55;;
51499;SDS011;39101;53.478;6.158;2023-05-31T08:02:52;13.93;;;3.85;;
51499;SDS011;39101;53.478;6.158;2023-05-31T08:05:18;16.40;;;3.88;;
51499;SDS011;39101;53.478;6.158;2023-05-31T08:07:44;17.88;;;5.47;;
51499;SDS011;39101;53.478;6.158;2023-05-31T08:10:10;15.63;;;3.53;;
51499;SDS011;39101;53.478;6.158;2023-05-31T08:12:36;11.32;;;3.90;;
51499;SDS011;39101;53.478;6.158;2023-05-31T08:15:02;12.75;;;3.28;;
51499;SDS011;39101;53.478;6.158;2023-05-31T08:17:28;10.88;;;3.80;;
51499;SDS011;39101;53.478;6.158;2023-05-31T08:19:54;16.08;;;4.03;;
51499;SDS011;39101;53.478;6.158;2023-05-31T08:22:20;12.15;;;3.80;;
51499;SDS011;39101;53.478;6.158;2023-05-31T08:24:45;12.27;;;3.80;;
51499;SDS011;39101;53.478;6.158;2023-05-31T08:27:11;10.45;;;3.33;;
51499;SDS011;39101;53.478;6.158;2023-05-31T08:29:37;13.85;;;3.42;;
51499;SDS011;39101;53.478;6.158;2023-05-31T08:32:03;9.18;;;3.78;;
51499;SDS011;39101;53.478;6.158;2023-05-31T08:34:29;12.32;;;3.72;;
51499;SDS011;39101;53.478;6.158;2023-05-31T08:36:54;11.00;;;3.35;;
51499;SDS011;39101;53.478;6.158;2023-05-31T08:39:20;10.05;;;2.97;;
51499;SDS011;39101;53.478;6.158;2023-05-31T08:41:48;13.68;;;2.83;;
51499;SDS011;39101;53.478;6.158;2023-05-31T08:44:23;10.82;;;3.00;;
51499;SDS011;39101;53.478;6.158;2023-05-31T08:46:50;10.35;;;3.28;;
51499;SDS011;39101;53.478;6.158;2023-05-31T08:49:15;10.32;;;3.20;;
51499;SDS011;39101;53.478;6.158;2023-05-31T08:51:46;8.15;;;2.95;;
51499;SDS011;39101;53.478;6.158;2023-05-31T08:54:13;8.05;;;2.97;;
51499;SDS011;39101;53.478;6.158;2023-05-31T08:56:40;10.27;;;2.97;;
51499;SDS011;39101;53.478;6.158;2023-05-31T08:59:07;7.75;;;3.60;;
51499;SDS011;39101;53.478;6.158;2023-05-31T09:01:36;13.80;;;3.78;;
51499;SDS011;39101;53.478;6.158;2023-05-31T09:04:03;10.98;;;3.75;;
51499;SDS011;39101;53.478;6.158;2023-05-31T09:06:31;10.73;;;3.80;;
51499;SDS011;39101;53.478;6.158;2023-05-31T09:08:57;6.65;;;3.28;;
51499;SDS011;39101;53.478;6.158;2023-05-31T09:11:22;9.57;;;3.28;;
51499;SDS011;39101;53.478;6.158;2023-05-31T09:13:48;14.00;;;3.40;;
51499;SDS011;39101;53.478;6.158;2023-05-31T09:16:14;11.20;;;2.95;;
51499;SDS011;39101;53.478;6.158;2023-05-31T09:18:40;9.73;;;3.10;;
51499;SDS011;39101;53.478;6.158;2023-05-31T09:21:09;5.25;;;2.50;;
51499;SDS011;39101;53.478;6.158;2023-05-31T09:23:36;9.13;;;2.47;;
51499;SDS011;39101;53.478;6.158;2023-05-31T09:26:05;9.95;;;2.70;;
51499;SDS011;39101;53.478;6.158;2023-05-31T09:28:31;5.90;;;2.60;;
51499;SDS011;39101;53.478;6.158;2023-05-31T09:31:00;8.52;;;2.70;;
51499;SDS011;39101;53.478;6.158;2023-05-31T09:33:36;8.40;;;2.97;;
51499;SDS011;39101;53.478;6.158;2023-05-31T09:36:04;9.07;;;3.20;;
51499;SDS011;39101;53.478;6.158;2023-05-31T09:38:33;11.88;;;2.30;;
51499;SDS011;39101;53.478;6.158;2023-05-31T09:43:43;7.28;;;2.40;;
51499;SDS011;39101;53.478;6.158;2023-05-31T09:46:17;8.05;;;2.83;;
51499;SDS011;39101;53.478;6.158;2023-05-31T09:48:44;7.10;;;2.97;;
51499;SDS011;39101;53.478;6.158;2023-05-31T09:51:11;7.57;;;2.90;;
51499;SDS011;39101;53.478;6.158;2023-05-31T09:53:39;9.20;;;3.28;;
51499;SDS011;39101;53.478;6.158;2023-05-31T09:56:19;9.65;;;2.90;;
51499;SDS011;39101;53.478;6.158;2023-05-31T09:58:47;7.32;;;2.63;;
51499;SDS011;39101;53.478;6.158;2023-05-31T10:01:16;9.75;;;3.13;;
51499;SDS011;39101;53.478;6.158;2023-05-31T10:03:43;7.05;;;2.55;;
51499;SDS011;39101;53.478;6.158;2023-05-31T10:06:09;7.25;;;2.45;;
51499;SDS011;39101;53.478;6.158;2023-05-31T10:08:37;8.65;;;2.40;;
51499;SDS011;39101;53.478;6.158;2023-05-31T10:11:03;9.40;;;3.10;;
51499;SDS011;39101;53.478;6.158;2023-05-31T10:13:29;6.15;;;3.03;;
51499;SDS011;39101;53.478;6.158;2023-05-31T10:16:05;9.40;;;3.22;;
51499;SDS011;39101;53.478;6.158;2023-05-31T10:18:33;6.72;;;2.30;;
51499;SDS011;39101;53.478;6.158;2023-05-31T10:23:30;6.47;;;2.60;;
51499;SDS011;39101;53.478;6.158;2023-05-31T10:26:15;11.18;;;3.78;;
51499;SDS011;39101;53.478;6.158;2023-05-31T10:28:45;9.52;;;3.30;;
51499;SDS011;39101;53.478;6.158;2023-05-31T10:31:20;8.65;;;3.10;;
51499;SDS011;39101;53.478;6.158;2023-05-31T10:33:53;8.43;;;3.05;;
51499;SDS011;39101;53.478;6.158;2023-05-31T10:36:23;9.63;;;3.45;;
51499;SDS011;39101;53.478;6.158;2023-05-31T10:38:54;10.52;;;3.55;;
51499;SDS011;39101;53.478;6.158;2023-05-31T10:41:24;8.38;;;2.70;;
51499;SDS011;39101;53.478;6.158;2023-05-31T10:43:58;9.77;;;3.33;;
51499;SDS011;39101;53.478;6.158;2023-05-31T10:46:30;8.73;;;3.60;;
51499;SDS011;39101;53.478;6.158;2023-05-31T10:49:00;9.93;;;3.92;;
51499;SDS011;39101;53.478;6.158;2023-05-31T10:54:05;9.35;;;3.25;;
51499;SDS011;39101;53.478;6.158;2023-05-31T10:56:32;9.65;;;4.13;;
51499;SDS011;39101;53.478;6.158;2023-05-31T10:58:57;10.52;;;3.25;;
51499;SDS011;39101;53.478;6.158;2023-05-31T11:01:23;9.65;;;3.60;;
51499;SDS011;39101;53.478;6.158;2023-05-31T11:03:54;8.65;;;3.22;;
51499;SDS011;39101;53.478;6.158;2023-05-31T11:06:26;10.52;;;4.00;;
51499;SDS011;39101;53.478;6.158;2023-05-31T11:13:58;8.40;;;3.08;;
51499;SDS011;39101;53.478;6.158;2023-05-31T11:16:25;11.52;;;3.88;;
51499;SDS011;39101;53.478;6.158;2023-05-31T11:19:07;13.10;;;5.10;;
51499;SDS011;39101;53.478;6.158;2023-05-31T11:21:48;8.68;;;3.45;;
51499;SDS011;39101;53.478;6.158;2023-05-31T11:26:58;11.18;;;3.95;;
51499;SDS011;39101;53.478;6.158;2023-05-31T11:29:41;11.30;;;3.45;;
51499;SDS011;39101;53.478;6.158;2023-05-31T11:32:14;7.30;;;3.15;;
51499;SDS011;39101;53.478;6.158;2023-05-31T11:34:56;8.23;;;3.40;;
51499;SDS011;39101;53.478;6.158;2023-05-31T11:37:26;11.65;;;3.33;;
51499;SDS011;39101;53.478;6.158;2023-05-31T11:39:53;9.48;;;3.53;;
51499;SDS011;39101;53.478;6.158;2023-05-31T11:42:23;8.57;;;3.60;;
51499;SDS011;39101;53.478;6.158;2023-05-31T11:44:49;9.13;;;3.45;;
51499;SDS011;39101;53.478;6.158;2023-05-31T11:47:27;9.45;;;3.83;;
51499;SDS011;39101;53.478;6.158;2023-05-31T11:50:02;7.32;;;3.60;;
51499;SDS011;39101;53.478;6.158;2023-05-31T11:52:28;10.38;;;3.33;;
51499;SDS011;39101;53.478;6.158;2023-05-31T11:54:54;8.85;;;3.42;;
51499;SDS011;39101;53.478;6.158;2023-05-31T11:57:28;7.57;;;3.42;;
51499;SDS011;39101;53.478;6.158;2023-05-31T11:59:58;7.07;;;3.35;;
51499;SDS011;39101;53.478;6.158;2023-05-31T12:02:38;14.07;;;3.88;;
51499;SDS011;39101;53.478;6.158;2023-05-31T12:05:05;11.13;;;3.65;;
51499;SDS011;39101;53.478;6.158;2023-05-31T12:07:31;10.02;;;4.13;;
51499;SDS011;39101;53.478;6.158;2023-05-31T12:09:57;8.25;;;3.65;;
51499;SDS011;39101;53.478;6.158;2023-05-31T12:12:23;8.93;;;3.70;;
51499;SDS011;39101;53.478;6.158;2023-05-31T12:14:49;9.82;;;4.13;;
51499;SDS011;39101;53.478;6.158;2023-05-31T12:17:16;11.30;;;3.67;;
51499;SDS011;39101;53.478;6.158;2023-05-31T12:19:42;12.02;;;4.85;;
51499;SDS011;39101;53.478;6.158;2023-05-31T12:22:07;8.57;;;4.82;;
51499;SDS011;39101;53.478;6.158;2023-05-31T12:24:33;8.82;;;4.10;;
51499;SDS011;39101;53.478;6.158;2023-05-31T12:27:02;9.77;;;4.00;;
51499;SDS011;39101;53.478;6.158;2023-05-31T12:29:29;13.57;;;4.55;;
51499;SDS011;39101;53.478;6.158;2023-05-31T12:32:05;14.73;;;8.45;;
51499;SDS011;39101;53.478;6.158;2023-05-31T12:34:34;10.75;;;5.50;;
51499;SDS011;39101;53.478;6.158;2023-05-31T12:37:04;11.80;;;6.10;;
51499;SDS011;39101;53.478;6.158;2023-05-31T12:39:31;10.05;;;4.40;;
51499;SDS011;39101;53.478;6.158;2023-05-31T12:41:58;11.50;;;4.60;;
51499;SDS011;39101;53.478;6.158;2023-05-31T12:44:25;16.08;;;5.00;;
51499;SDS011;39101;53.478;6.158;2023-05-31T12:46:51;12.65;;;5.10;;
51499;SDS011;39101;53.478;6.158;2023-05-31T12:49:27;9.20;;;4.13;;
51499;SDS011;39101;53.478;6.158;2023-05-31T12:52:00;10.52;;;4.95;;
51499;SDS011;39101;53.478;6.158;2023-05-31T12:54:34;12.90;;;3.75;;
51499;SDS011;39101;53.478;6.158;2023-05-31T12:57:01;13.57;;;5.03;;
51499;SDS011;39101;53.478;6.158;2023-05-31T12:59:28;18.20;;;4.30;;
51499;SDS011;39101;53.478;6.158;2023-05-31T13:01:54;11.73;;;4.30;;
51499;SDS011;39101;53.478;6.158;2023-05-31T13:04:20;11.18;;;4.18;;
51499;SDS011;39101;53.478;6.158;2023-05-31T13:06:46;11.60;;;4.43;;
51499;SDS011;39101;53.478;6.158;2023-05-31T13:09:12;10.02;;;4.38;;
51499;SDS011;39101;53.478;6.158;2023-05-31T13:11:39;9.00;;;3.50;;
51499;SDS011;39101;53.478;6.158;2023-05-31T13:14:05;10.45;;;3.67;;
51499;SDS011;39101;53.478;6.158;2023-05-31T13:16:36;7.72;;;3.72;;
51499;SDS011;39101;53.478;6.158;2023-05-31T13:19:03;10.48;;;3.67;;
51499;SDS011;39101;53.478;6.158;2023-05-31T13:21:30;9.70;;;3.90;;
51499;SDS011;39101;53.478;6.158;2023-05-31T13:24:01;12.57;;;3.75;;
51499;SDS011;39101;53.478;6.158;2023-05-31T13:26:28;10.13;;;3.63;;
51499;SDS011;39101;53.478;6.158;2023-05-31T13:28:54;11.25;;;3.53;;
51499;SDS011;39101;53.478;6.158;2023-05-31T13:31:21;7.40;;;3.38;;
51499;SDS011;39101;53.478;6.158;2023-05-31T13:33:48;6.50;;;3.40;;
51499;SDS011;39101;53.478;6.158;2023-05-31T13:36:14;9.50;;;3.50;;
51499;SDS011;39101;53.478;6.158;2023-05-31T13:38:41;9.90;;;3.17;;
51499;SDS011;39101;53.478;6.158;2023-05-31T13:41:07;8.15;;;3.47;;
51499;SDS011;39101;53.478;6.158;2023-05-31T13:43:32;11.02;;;3.35;;
51499;SDS011;39101;53.478;6.158;2023-05-31T13:46:05;7.47;;;3.20;;
51499;SDS011;39101;53.478;6.158;2023-05-31T13:48:58;8.73;;;3.70;;
51499;SDS011;39101;53.478;6.158;2023-05-31T13:51:24;13.95;;;3.38;;
51499;SDS011;39101;53.478;6.158;2023-05-31T13:53:49;8.65;;;3.88;;
51499;SDS011;39101;53.478;6.158;2023-05-31T13:56:15;10.75;;;4.07;;
51499;SDS011;39101;53.478;6.158;2023-05-31T13:58:41;13.23;;;4.38;;
51499;SDS011;39101;53.478;6.158;2023-05-31T14:01:06;9.60;;;4.85;;
51499;SDS011;39101;53.478;6.158;2023-05-31T14:03:33;9.82;;;4.80;;
51499;SDS011;39101;53.478;6.158;2023-05-31T14:05:59;10.95;;;5.38;;
51499;SDS011;39101;53.478;6.158;2023-05-31T14:08:25;12.88;;;4.95;;
51499;SDS011;39101;53.478;6.158;2023-05-31T14:10:51;11.35;;;4.72;;
51499;SDS011;39101;53.478;6.158;2023-05-31T14:13:17;11.60;;;4.85;;
51499;SDS011;39101;53.478;6.158;2023-05-31T14:15:43;15.30;;;5.40;;
51499;SDS011;39101;53.478;6.158;2023-05-31T14:18:09;12.10;;;5.50;;
51499;SDS011;39101;53.478;6.158;2023-05-31T14:20:35;9.38;;;5.05;;
51499;SDS011;39101;53.478;6.158;2023-05-31T14:23:04;11.82;;;5.90;;
51499;SDS011;39101;53.478;6.158;2023-05-31T14:25:30;13.10;;;5.72;;
51499;SDS011;39101;53.478;6.158;2023-05-31T14:27:56;10.05;;;4.97;;
51499;SDS011;39101;53.478;6.158;2023-05-31T14:30:22;10.90;;;5.47;;
51499;SDS011;39101;53.478;6.158;2023-05-31T14:32:48;11.80;;;6.28;;
51499;SDS011;39101;53.478;6.158;2023-05-31T14:35:14;10.60;;;5.38;;
51499;SDS011;39101;53.478;6.158;2023-05-31T14:37:40;14.27;;;5.40;;
51499;SDS011;39101;53.478;6.158;2023-05-31T14:40:06;14.10;;;5.53;;
51499;SDS011;39101;53.478;6.158;2023-05-31T14:42:32;11.20;;;5.68;;
51499;SDS011;39101;53.478;6.158;2023-05-31T14:44:58;15.05;;;5.82;;
51499;SDS011;39101;53.478;6.158;2023-05-31T14:47:28;15.90;;;6.78;;
51499;SDS011;39101;53.478;6.158;2023-05-31T14:49:57;12.55;;;6.03;;
51499;SDS011;39101;53.478;6.158;2023-05-31T14:52:22;13.13;;;5.57;;
51499;SDS011;39101;53.478;6.158;2023-05-31T14:54:48;10.20;;;5.35;;
51499;SDS011;39101;53.478;6.158;2023-05-31T14:57:14;11.15;;;5.75;;
51499;SDS011;39101;53.478;6.158;2023-05-31T14:59:39;9.00;;;4.97;;
51499;SDS011;39101;53.478;6.158;2023-05-31T15:02:05;12.48;;;5.20;;